createdAt,value
2022-08-10T00:04:07.066Z,12.31
2022-08-10T00:09:08.697Z,12.23
2022-08-10T00:14:10.367Z,12.15
2022-08-10T00:19:12.014Z,12.11
2022-08-10T00:24:14.615Z,12.13
2022-08-10T00:29:16.241Z,11.95
2022-08-10T00:34:17.861Z,11.90
2022-08-10T00:39:19.539Z,11.80
2022-08-10T00:44:21.318Z,11.79
2022-08-10T00:49:23.024Z,11.78
2022-08-10T00:54:25.247Z,11.68
2022-08-10T00:59:26.921Z,11.63
2022-08-10T01:04:39.932Z,11.61
2022-08-10T01:09:56.896Z,11.53
2022-08-10T01:15:29.337Z,11.45
2022-08-10T01:20:37.908Z,11.35
2022-08-10T01:26:10.518Z,11.28
2022-08-10T01:31:20.039Z,11.23
2022-08-10T01:36:32.454Z,11.16
2022-08-10T01:41:46.918Z,11.11
2022-08-10T01:46:53.174Z,11.05
2022-08-10T01:52:00.933Z,10.97
2022-08-10T01:57:04.212Z,10.97
2022-08-10T02:02:10.077Z,10.87
2022-08-10T02:07:16.513Z,10.81
2022-08-10T02:12:24.488Z,10.89
2022-08-10T02:17:59.876Z,10.79
2022-08-10T02:23:02.840Z,10.64
2022-08-10T02:28:06.693Z,10.55
2022-08-10T02:33:09.925Z,10.52
2022-08-10T02:38:15.547Z,10.43
2022-08-10T02:45:18.527Z,10.40
2022-08-10T02:48:51.855Z,10.39
2022-08-10T02:54:02.650Z,10.37
2022-08-10T02:59:10.174Z,10.28
2022-08-10T03:04:57.112Z,10.28
2022-08-10T03:09:57.755Z,10.21
2022-08-10T03:15:00.785Z,10.15
2022-08-10T03:20:04.688Z,10.16
2022-08-10T03:25:26.278Z,10.23
2022-08-10T03:30:33.275Z,10.32
2022-08-10T03:35:35.838Z,10.52
2022-08-10T03:40:46.022Z,10.74
2022-08-10T03:45:58.629Z,10.78
2022-08-10T03:51:01.991Z,10.82
2022-08-10T03:56:29.362Z,10.86
2022-08-10T04:02:44.008Z,10.82
2022-08-10T04:06:51.397Z,10.72
2022-08-10T04:11:56.328Z,10.75
2022-08-10T04:16:57.966Z,10.90
2022-08-10T04:22:15.936Z,11.07
2022-08-10T04:27:17.789Z,11.29
2022-08-10T04:32:22.146Z,11.45
2022-08-10T04:37:24.659Z,11.66
2022-08-10T04:42:26.488Z,11.81
2022-08-10T04:47:57.417Z,11.91
2022-08-10T04:52:49.806Z,11.93
2022-08-10T04:57:51.460Z,11.97
2022-08-10T05:02:53.116Z,12.18
2022-08-10T05:07:56.907Z,12.67
2022-08-10T05:12:58.811Z,13.23
2022-08-10T05:18:08.698Z,13.78
2022-08-10T05:23:11.591Z,14.03
2022-08-10T05:28:13.189Z,14.21
2022-08-10T05:33:14.795Z,14.22
2022-08-10T05:38:17.883Z,14.18
2022-08-10T05:43:21.634Z,14.30
2022-08-10T05:48:41.702Z,14.52
2022-08-10T05:54:01.155Z,14.75
2022-08-10T05:59:05.128Z,14.93
2022-08-10T06:04:09.270Z,15.01
2022-08-10T06:09:12.014Z,15.06
2022-08-10T06:14:34.764Z,15.18
2022-08-10T06:19:39.617Z,15.34
2022-08-10T06:25:10.040Z,15.61
2022-08-10T06:30:20.595Z,15.95
2022-08-10T06:35:28.620Z,16.18
2022-08-10T06:40:35.948Z,16.41
2022-08-10T06:45:45.974Z,16.83
2022-08-10T06:51:15.395Z,17.11
2022-08-10T06:56:20.918Z,17.36
2022-08-10T07:01:43.575Z,17.62
2022-08-10T07:06:55.139Z,17.99
2022-08-10T07:11:58.351Z,18.33
2022-08-10T07:17:17.171Z,18.66
2022-08-10T07:23:27.399Z,19.04
2022-08-10T07:27:58.494Z,19.40
2022-08-10T07:33:05.300Z,19.63
2022-08-10T07:38:09.462Z,20.04
2022-08-10T07:43:14.147Z,20.23
2022-08-10T07:48:24.989Z,20.45
2022-08-10T07:53:32.364Z,20.72
2022-08-10T07:58:46.424Z,21.09
2022-08-10T08:04:05.648Z,21.29
2022-08-10T08:09:12.667Z,21.36
2022-08-10T08:14:15.567Z,21.61
2022-08-10T08:19:37.512Z,21.61
2022-08-10T08:24:42.324Z,21.80
2022-08-10T08:29:46.400Z,22.11
2022-08-10T08:34:51.467Z,22.45
2022-08-10T08:39:53.911Z,23.16
2022-08-10T08:45:13.514Z,23.30
2022-08-10T08:50:34.075Z,23.44
2022-08-10T08:56:03.301Z,23.57
2022-08-10T09:01:43.794Z,23.33
2022-08-10T09:06:45.413Z,23.79
2022-08-10T09:12:06.017Z,24.27
2022-08-10T09:17:32.316Z,24.30
2022-08-10T09:22:59.906Z,24.64
2022-08-10T09:28:07.952Z,24.18
2022-08-10T09:36:26.377Z,24.83
2022-08-10T09:40:08.481Z,25.08
2022-08-10T09:44:58.440Z,26.43
2022-08-10T09:50:09.112Z,26.00
2022-08-10T09:56:17.076Z,26.23
2022-08-10T10:02:00.380Z,26.08
2022-08-10T10:07:07.027Z,25.61
2022-08-10T10:12:35.736Z,26.29
2022-08-10T10:17:37.420Z,25.76
2022-08-10T10:23:20.618Z,25.26
2022-08-10T10:28:57.461Z,24.93
2022-08-10T10:34:14.621Z,24.52
2022-08-10T10:39:23.799Z,24.28
2022-08-10T10:45:04.501Z,24.30
2022-08-10T10:50:13.191Z,24.41
2022-08-10T10:55:30.293Z,25.20
2022-08-10T11:00:42.105Z,25.99
2022-08-10T11:06:09.928Z,25.67
2022-08-10T11:12:00.045Z,26.07
2022-08-10T11:16:39.148Z,26.09
2022-08-10T11:21:45.372Z,26.28
2022-08-10T11:26:57.390Z,25.88
2022-08-10T11:32:20.302Z,25.97
2022-08-10T11:38:29.714Z,25.96
2022-08-10T11:43:06.483Z,26.73
2022-08-10T11:48:54.868Z,26.82
2022-08-10T11:54:07.379Z,26.69
2022-08-10T11:59:28.242Z,26.56
2022-08-10T12:04:31.407Z,27.15
2022-08-10T12:10:10.644Z,26.25
2022-08-10T12:15:11.165Z,26.75
2022-08-10T12:20:29.065Z,27.99
2022-08-10T12:25:58.705Z,28.40
2022-08-10T12:31:02.709Z,29.30
2022-08-10T12:36:18.301Z,29.06
2022-08-10T12:41:44.541Z,30.52
2022-08-10T12:46:58.961Z,30.97
2022-08-10T12:52:34.944Z,36.60
2022-08-10T12:57:41.012Z,40.76
2022-08-10T13:02:48.555Z,41.44
2022-08-10T13:08:27.195Z,40.00
2022-08-10T13:13:37.243Z,32.88
2022-08-10T13:18:42.484Z,29.94
2022-08-10T13:24:04.285Z,33.32
2022-08-10T13:29:15.124Z,41.46
2022-08-10T13:34:43.028Z,41.80
2022-08-10T13:39:59.482Z,37.51
2022-08-10T13:45:14.583Z,34.33
2022-08-10T13:50:33.691Z,32.94
2022-08-10T13:55:54.122Z,34.23
2022-08-10T14:01:00.494Z,39.93
2022-08-10T14:06:05.366Z,36.16
2022-08-10T14:11:13.004Z,33.80
2022-08-10T14:16:17.303Z,31.05
2022-08-10T14:21:19.210Z,28.49
2022-08-10T14:26:26.294Z,27.84
2022-08-10T14:31:34.183Z,27.73
2022-08-10T14:36:56.153Z,31.14
2022-08-10T14:42:11.070Z,36.21
2022-08-10T14:47:53.065Z,33.50
2022-08-10T14:52:48.316Z,32.95
2022-08-10T14:58:19.795Z,29.47
2022-08-10T15:04:01.800Z,28.39
2022-08-10T15:08:42.025Z,27.05
2022-08-10T15:14:15.191Z,26.49
2022-08-10T15:20:00.636Z,26.33
2022-08-10T15:25:00.463Z,26.20
2022-08-10T15:30:03.913Z,26.52
2022-08-10T15:35:26.557Z,26.57
2022-08-10T15:40:37.371Z,26.95
2022-08-10T15:46:02.334Z,27.84
2022-08-10T15:51:10.516Z,28.25
2022-08-10T15:56:16.955Z,28.55
2022-08-10T16:02:12.703Z,27.44
2022-08-10T16:07:10.264Z,26.45
2022-08-10T16:12:29.954Z,25.49
2022-08-10T16:17:54.676Z,25.27
2022-08-10T16:23:03.419Z,25.37
2022-08-10T16:28:08.529Z,25.79
2022-08-10T16:33:13.477Z,26.27
2022-08-10T16:38:17.619Z,26.07
2022-08-10T16:43:23.786Z,25.48
2022-08-10T16:48:50.222Z,24.96
2022-08-10T16:53:52.866Z,24.52
2022-08-10T16:58:57.388Z,24.05
2022-08-10T17:04:09.605Z,23.83
2022-08-10T17:09:19.160Z,23.53
2022-08-10T17:14:26.462Z,23.18
2022-08-10T17:19:35.008Z,22.88
2022-08-10T17:24:43.586Z,22.65
2022-08-10T17:29:58.027Z,22.47
2022-08-10T17:35:09.861Z,22.31
2022-08-10T17:40:16.963Z,22.24
2022-08-10T17:45:46.230Z,22.37
2022-08-10T17:50:52.431Z,22.40
2022-08-10T17:55:56.485Z,22.43
2022-08-10T18:01:38.746Z,22.22
2022-08-10T18:06:24.346Z,22.01
2022-08-10T18:11:29.087Z,21.81
2022-08-10T18:16:33.932Z,21.53
2022-08-10T18:21:43.527Z,21.09
2022-08-10T18:26:52.452Z,20.60
2022-08-10T18:32:02.991Z,20.38
2022-08-10T18:37:19.827Z,20.03
2022-08-10T18:42:31.287Z,19.74
2022-08-10T18:47:59.543Z,19.41
2022-08-10T18:53:09.167Z,19.00
2022-08-10T18:58:40.149Z,18.62
2022-08-10T19:03:53.474Z,18.36
2022-08-10T19:09:41.597Z,18.09
2022-08-10T19:14:57.225Z,17.79
2022-08-10T19:20:17.353Z,17.55
2022-08-10T19:26:40.810Z,17.31
2022-08-10T19:30:52.010Z,17.12
2022-08-10T19:36:16.776Z,16.84
2022-08-10T19:41:44.745Z,16.67
2022-08-10T19:46:51.378Z,16.52
2022-08-10T19:52:22.550Z,16.33
2022-08-10T19:57:37.406Z,16.22
2022-08-10T20:03:04.252Z,16.00
2022-08-10T20:08:20.809Z,15.83
2022-08-10T20:13:37.013Z,15.65
2022-08-10T20:18:47.350Z,15.57
2022-08-10T20:24:05.613Z,15.55
2022-08-10T20:29:16.522Z,15.39
2022-08-10T20:34:44.821Z,15.15
2022-08-10T20:39:54.075Z,15.03
2022-08-10T20:45:18.271Z,14.88
2022-08-10T20:50:48.981Z,14.78
2022-08-10T20:56:29.358Z,14.63
2022-08-10T21:02:06.749Z,14.55
2022-08-10T21:07:28.349Z,14.46
2022-08-10T21:13:01.225Z,14.35
2022-08-10T21:18:21.590Z,14.30
2022-08-10T21:23:30.980Z,14.23
2022-08-10T21:28:51.015Z,14.08
2022-08-10T21:34:13.280Z,13.93
2022-08-10T21:39:43.011Z,13.86
2022-08-10T21:45:54.887Z,13.76
2022-08-10T21:51:24.375Z,13.73
2022-08-10T21:57:04.200Z,13.65
2022-08-10T22:02:31.648Z,13.59
2022-08-10T22:07:54.970Z,13.56
2022-08-10T22:13:21.389Z,13.51
2022-08-10T22:18:59.463Z,13.38
2022-08-10T22:24:44.771Z,13.19
2022-08-10T22:30:10.586Z,13.10
2022-08-10T22:35:34.006Z,13.01
2022-08-10T22:40:54.122Z,12.89
2022-08-10T22:46:18.408Z,12.89
2022-08-10T22:51:23.653Z,12.82
2022-08-10T22:56:44.435Z,12.75
2022-08-10T23:02:08.386Z,12.73
2022-08-10T23:07:16.899Z,12.66
2022-08-10T23:12:25.629Z,12.63
2022-08-10T23:18:01.477Z,12.59
2022-08-10T23:23:09.967Z,12.48
2022-08-10T23:28:13.532Z,12.35
2022-08-10T23:33:38.097Z,12.25
2022-08-10T23:38:42.138Z,12.15
2022-08-10T23:44:03.483Z,12.08
2022-08-10T23:49:07.742Z,12.09
2022-08-10T23:54:15.684Z,12.16
2022-08-10T23:59:21.230Z,12.11
